• Join FlightAware (Why Join?)
  • Login
  • US Flag 
02:51PM EDT


 

Airport Tracker/Info


-or-


 

Live Flight TrackerFlight Track Log ✈ UPS219 ✈ 07-May-2013 ✈ KPHL - LFPG / CDG

Flight Track Log - Related Links

Times and Time Zones

All times are in EDT time to prevent confusion due to time zone crossing. See the UPS219 flight status page for this flight to view local times or setup timezone preferences in your user account.

Time Position Orientation Groundspeed Altitude Reporting Facility
EDT Latitude Longitude Course Direction KTS MPH feet Rate Location/Type
08:02AM 39.8741 -75.2200 91° East 153 176 900  Level FlightAware ADS-B
08:02AM 39.8739 -75.2164 94° East 152 175 1,200 2,820 Climbing FlightAware ADS-B
08:02AM 39.8727 -75.2055 98° East 157 181 1,700 1,980 Climbing FlightAware ADS-B
08:03AM 39.8708 -75.1914 100° East 177 204 2,100 1,620 Climbing FlightAware ADS-B
08:03AM 39.8684 -75.1732 100° East 200 230 2,500 2,100 Climbing FlightAware ADS-B
08:03AM 39.8660 -75.1530 99° East 215 247 3,200 2,400 Climbing FlightAware ADS-B
08:03AM 39.8653 -75.1464 98° East 219 252 3,400 1,680 Climbing FlightAware ADS-B
08:03AM 39.8631 -75.1243 97° East 237 273 3,800 1,980 Climbing FlightAware ADS-B
08:04AM 39.8605 -75.1024 99° East 248 285 4,400 2,880 Climbing FlightAware ADS-B
08:04AM 39.8576 -75.0757 98° East 250 288 5,400 3,000 Climbing FlightAware ADS-B
08:04AM 39.8546 -75.0483 98° East 258 297 6,200 2,520 Climbing FlightAware ADS-B
08:04AM 39.8526 -75.0328 100° East 260 299 6,600 2,700 Climbing FlightAware ADS-B
08:05AM 39.8497 -75.0175 104° East 262 302 7,100 3,120 Climbing FlightAware ADS-B
08:05AM 39.8454 -74.9944 104° East 264 304 7,900 2,880 Climbing FlightAware ADS-B
08:05AM 39.8408 -74.9713 105° East 266 306 8,600 2,580 Climbing FlightAware ADS-B
08:05AM 39.8358 -74.9446 104° East 270 311 9,300 2,580 Climbing FlightAware ADS-B
08:06AM 39.8316 -74.9223 104° East 273 314 9,900 2,400 Climbing FlightAware ADS-B
08:06AM 39.8251 -74.8844 103° East 286 329 10,800 1,620 Climbing FlightAware ADS-B
08:06AM 39.8145 -74.8287 104° East 325 374 11,400 1,320 Climbing FlightAware ADS-B
08:07AM 39.8025 -74.7656 104° East 364 419 12,200 1,680 Climbing FlightAware ADS-B
08:07AM 39.7976 -74.7346 102° East 381 438 12,700 2,520 Climbing FlightAware ADS-B
08:07AM 39.7961 -74.7046 94° East 390 449 13,300 2,820 Climbing FlightAware ADS-B
08:08AM 39.8011 -74.6304 85° East 408 470 14,800 3,000 Climbing FlightAware ADS-B
08:08AM 39.8072 -74.5538 84° East 416 479 16,400 2,940 Climbing FlightAware ADS-B
08:09AM 39.8144 -74.4678 84° East 430 495 18,000 2,760 Climbing FlightAware ADS-B
08:10AM 39.8173 -74.3896 87° East 438 504 19,400 2,460 Climbing FlightAware ADS-B
08:10AM 39.8182 -74.3229 89° East 449 517 20,300 2,220 Climbing FlightAware ADS-B
08:10AM 39.8224 -74.2960 79° East 457 526 20,700 2,400 Climbing FlightAware ADS-B
08:10AM 39.8265 -74.2804 71° East 460 529 20,900 2,100 Climbing FlightAware ADS-B
08:11AM 39.8519 -74.1938 69° East 472 543 22,100 1,980 Climbing FlightAware ADS-B
08:11AM 39.8802 -74.1157 65° Northeast 481 554 23,000 2,160 Climbing FlightAware ADS-B
08:12AM 39.9116 -74.0294 65° Northeast 482 555 24,400 2,220 Climbing FlightAware ADS-B
08:12AM 39.9468 -73.9341 64° Northeast 491 565 25,600 1,920 Climbing FlightAware ADS-B
08:13AM 39.9779 -73.8476 65° Northeast 498 573 26,600 2,340 Climbing FlightAware ADS-B
08:14AM 40.0113 -73.7558 65° Northeast 494 568 28,200 2,640 Climbing FlightAware ADS-B
08:14AM 40.0415 -73.6730 65° Northeast 490 564 29,500 2,280 Climbing FlightAware ADS-B
08:15AM 40.0707 -73.5930 64° Northeast 489 563 30,600 2,040 Climbing FlightAware ADS-B
08:15AM 40.1116 -73.4782 65° Northeast 488 562 32,000 1,860 Climbing FlightAware ADS-B
08:16AM 40.1420 -73.3930 65° Northeast 487 560 32,900 900 Climbing FlightAware ADS-B
08:16AM 40.1719 -73.3103 65° Northeast 489 563 33,000 60 Climbing FlightAware ADS-B
08:17AM 40.2010 -73.2276 65° Northeast 486 559 33,000  Level FlightAware ADS-B
08:17AM 40.2351 -73.1319 65° Northeast 484 557 33,000  Level FlightAware ADS-B
08:18AM 40.2637 -73.0520 65° Northeast 485 558 33,000  Level FlightAware ADS-B
08:18AM 40.2927 -72.9720 65° Northeast 486 559 33,000  Level FlightAware ADS-B
08:19AM 40.3233 -72.8840 65° Northeast 486 559 33,000  Level FlightAware ADS-B
08:20AM 40.3528 -72.8012 65° Northeast 485 558 33,000  Level FlightAware ADS-B
08:20AM 40.3917 -72.6890 65° Northeast 485 558 33,000  Level FlightAware ADS-B
08:21AM 40.4227 -72.6009 65° Northeast 485 558 33,000  Level FlightAware ADS-B
08:22AM 40.4709 -72.4617 65° Northeast 485 558 33,000  Level FlightAware ADS-B
08:22AM 40.4998 -72.3789 65° Northeast 483 556 33,000  Level FlightAware ADS-B
08:23AM 40.5326 -72.2855 65° Northeast 483 556 33,000  Level FlightAware ADS-B
08:23AM 40.5654 -72.1894 66° East 483 556 33,000  Level FlightAware ADS-B
08:24AM 40.6039 -72.0773 66° East 482 555 33,000  Level FlightAware ADS-B
08:25AM 40.6360 -71.9840 66° East 481 554 33,000  Level FlightAware
08:25AM 40.6487 -71.9465 66° East 482 555 33,000  Level FlightAware ADS-B
08:25AM 40.6770 -71.8640 66° East 479 551 33,000  Level FlightAware
08:26AM 40.7110 -71.7628 66° East 482 555 33,000  Level FlightAware ADS-B
08:26AM 40.7384 -71.6829 66° East 479 551 33,000  Level FlightAware ADS-B
08:27AM 40.7878 -71.5360 66° East 479 551 33,000  Level FlightAware ADS-B
08:28AM 40.8260 -71.4240 66° East 481 554 33,000  Level FlightAware
08:29AM 40.8700 -71.2920 66° East 480 552 33,000  Level FlightAware
08:30AM 40.9120 -71.1670 66° East 482 555 33,000  Level FlightAware
08:31AM 40.9660 -71.0050 66° East 481 554 33,000  Level FlightAware
08:32AM 41.0070 -70.8800 66° East 482 555 33,000  Level FlightAware
08:32AM 41.0440 -70.7690 66° East 482 555 33,000  Level FlightAware
08:33AM 41.0720 -70.6820 67° East 483 556 33,000  Level FlightAware
08:33AM 41.1110 -70.5620 67° East 484 557 33,000  Level FlightAware
08:34AM 41.1580 -70.4200 66° East 485 558 33,000  Level FlightAware
08:35AM 41.1940 -70.3120 66° East 485 558 33,000  Level FlightAware
08:36AM 41.2250 -70.2190 66° East 485 558 33,000  Level FlightAware
08:37AM 41.2700 -70.0760 67° East 486 559 33,000  Level FlightAware
08:37AM 41.3080 -69.9590 67° East 486 559 33,000  Level FlightAware
08:38AM 41.3440 -69.8390 68° East 483 556 33,000  Level FlightAware
08:39AM 41.3830 -69.7120 68° East 482 555 33,000  Level FlightAware
08:39AM 41.4190 -69.6010 67° East 483 556 33,000  Level FlightAware
08:40AM 41.4680 -69.4430 67° East 483 556 33,000  Level FlightAware
08:41AM 41.5090 -69.3160 67° East 485 558 33,000  Level FlightAware
08:42AM 41.5440 -69.2020 68° East 485 558 33,000  Level FlightAware
08:42AM 41.5770 -69.0910 68° East 485 558 33,000  Level FlightAware
08:43AM 41.6300 -68.9200 67° East 487 560 33,000  Level FlightAware
08:44AM 41.6640 -68.8090 68° East 487 560 33,000  Level FlightAware
08:45AM 41.7030 -68.6850 67° East 487 560 33,000  Level FlightAware
08:45AM 41.7300 -68.5910 69° East 487 560 33,000  Level FlightAware
08:46AM 41.7720 -68.4540 68° East 488 562 33,000  Level FlightAware
08:47AM 41.8080 -68.3300 69° East 489 563 33,000  Level FlightAware
08:48AM 41.8360 -68.2340 69° East 489 563 33,000  Level FlightAware
08:51AM 42.0090 -67.6570 68° East 33,000  Level FlightAware
08:51AM 42.0167 -67.5833 68° East 490 564 33,000 480 Level Moncton Center
08:52AM 42.0500 -67.4333 73° East 490 564 33,700 960 Climbing Moncton Center
08:53AM 42.1167 -67.2500 64° Northeast 480 552 35,000 600 Climbing Moncton Center
08:54AM 42.1500 -67.0833 75° East 490 564 35,000  Level Moncton Center
08:55AM 42.2000 -66.9167 68° East 490 564 35,000  Level Moncton Center
08:56AM 42.2500 -66.7500 68° East 480 552 35,000  Level Moncton Center
08:57AM 42.3167 -66.5667 64° Northeast 490 564 35,000  Level Moncton Center
08:58AM 42.3500 -66.4000 75° East 490 564 35,000  Level Moncton Center
08:59AM 42.4000 -66.2500 66° East 490 564 35,000  Level Moncton Center
09:00AM 42.4500 -66.0667 70° East 490 564 35,000  Level Moncton Center
09:01AM 42.5000 -65.8833 70° East 480 552 35,000  Level Moncton Center
09:02AM 42.5667 -65.7167 61° Northeast 490 564 35,000  Level Moncton Center
09:03AM 42.6000 -65.5500 75° East 490 564 35,000  Level Moncton Center
09:09AM 42.8700 -64.6240 75° East 488 562 35,000  Level FlightAware
09:09AM 42.9020 -64.5050 70° East 488 562 35,000  Level FlightAware
09:10AM 42.9360 -64.3800 70° East 488 562 35,000  Level FlightAware
09:11AM 42.9650 -64.2660 71° East 488 562 35,000  Level FlightAware
09:11AM 42.9900 -64.1670 71° East 488 562 35,000  Level FlightAware
09:12AM 43.0150 -64.0680 71° East 488 562 35,000  Level FlightAware
09:13AM 43.0400 -63.9680 71° East 488 562 35,000  Level FlightAware
09:13AM 43.0650 -63.8690 71° East 488 562 35,000  Level FlightAware
09:14AM 43.0960 -63.7450 71° East 488 562 35,000  Level FlightAware
09:15AM 43.1210 -63.6450 71° East 488 562 35,000  Level FlightAware
09:16AM 43.1460 -63.5460 71° East 488 562 35,000  Level FlightAware
09:16AM 43.1710 -63.4460 71° East 488 562 35,000  Level FlightAware
09:17AM 43.1960 -63.3470 71° East 488 562 35,000  Level FlightAware
09:18AM 43.2270 -63.2220 71° East 488 562 35,000  Level FlightAware
09:18AM 43.2520 -63.1230 71° East 488 562 35,000  Level FlightAware
09:19AM 43.2770 -63.0230 71° East 488 562 35,000  Level FlightAware
09:20AM 43.3020 -62.9230 71° East 488 562 35,000  Level FlightAware
09:20AM 43.3667 -62.5833 71° East 490 564 35,000  Level Gander Center
09:20AM 43.3833 -62.5167 71° East 490 564 35,000  Level Gander Center
09:21AM 43.4167 -62.4000 68° East 490 564 35,000  Level Moncton Center
09:22AM 43.4667 -62.2167 69° East 480 552 35,000  Level Moncton Center
09:23AM 43.5167 -62.0500 67° East 480 552 35,000  Level Moncton Center
09:24AM 43.5500 -61.8667 76° East 480 552 35,000  Level Moncton Center
09:25AM 43.5833 -61.7000 75° East 480 552 35,000  Level Moncton Center
09:26AM 43.6333 -61.5167 69° East 470 541 35,000  Level Moncton Center
09:27AM 43.6833 -61.3500 67° East 470 541 35,000  Level Moncton Center
09:28AM 43.7000 -61.1833 82° East 470 541 35,000  Level Moncton Center
09:29AM 43.7500 -61.0000 69° East 470 541 35,000  Level Moncton Center
09:30AM 43.8000 -60.8333 67° East 480 552 35,000  Level Moncton Center
09:35AM 44.0210 -59.9130 67° East 491 565 35,000  Level FlightAware
09:36AM 44.0460 -59.8150 70° East 492 566 35,000  Level FlightAware
09:37AM 44.0770 -59.6920 71° East 493 567 35,000  Level FlightAware
09:38AM 44.1210 -59.5160 71° East 493 567 35,000  Level FlightAware
09:38AM 44.1460 -59.4140 71° East 493 567 35,000  Level FlightAware
09:39AM 44.1710 -59.3110 71° East 493 567 35,000  Level FlightAware
09:40AM 44.2170 -59.1200 71° East 491 565 35,000  Level FlightAware
09:41AM 44.2450 -58.9970 72° East 490 564 35,000  Level FlightAware
09:41AM 44.2780 -58.8620 71° East 490 564 35,000  Level FlightAware
09:42AM 44.3070 -58.7390 72° East 491 565 35,000  Level FlightAware
09:43AM 44.3380 -58.6090 72° East 491 565 35,000  Level FlightAware
09:43AM 44.3670 -58.4860 72° East 491 565 35,000  Level FlightAware
09:44AM 44.3940 -58.3680 72° East 490 564 35,000  Level FlightAware
09:45AM 44.4270 -58.2300 71° East 489 563 35,000  Level FlightAware
09:46AM 44.4570 -58.1000 72° East 489 563 35,000  Level FlightAware
09:46AM 44.4850 -57.9740 73° East 488 562 35,000  Level FlightAware
09:47AM 44.5120 -57.8570 72° East 487 560 35,000  Level FlightAware
09:48AM 44.5430 -57.7180 73° East 488 562 35,000  Level FlightAware
09:48AM 44.5710 -57.5950 72° East 488 562 35,000  Level FlightAware
09:49AM 44.5980 -57.4740 73° East 488 562 35,000  Level FlightAware
09:50AM 44.6210 -57.3740 72° East 488 562 35,000  Level FlightAware
09:50AM 44.6450 -57.2720 72° East 488 562 35,000  Level FlightAware
09:51AM 44.6750 -57.1430 72° East 488 562 35,000  Level FlightAware
09:52AM 44.6980 -57.0410 72° East 488 562 35,000  Level FlightAware
09:52AM 44.7360 -56.8470 75° East 489 563 35,000  Level FlightAware
09:53AM 44.7640 -56.7240 72° East 489 563 35,000  Level FlightAware
09:54AM 44.7880 -56.6210 72° East 489 563 35,000  Level FlightAware
09:55AM 44.8120 -56.5180 72° East 489 563 35,000  Level FlightAware
09:55AM 44.8440 -56.3480 75° East 490 564 35,000  Level FlightAware
09:56AM 44.8670 -56.2440 73° East 490 564 35,000  Level FlightAware
09:57AM 44.8950 -56.1140 73° East 490 564 35,000  Level FlightAware
09:57AM 44.9180 -56.0100 73° East 490 564 35,000  Level FlightAware
09:58AM 44.9400 -55.9060 73° East 490 564 35,000  Level FlightAware
09:59AM 44.9630 -55.8020 73° East 490 564 35,000  Level FlightAware
09:59AM 44.9850 -55.6970 73° East 490 564 35,000  Level FlightAware
10:00AM 45.0130 -55.5670 73° East 490 564 35,000  Level FlightAware
10:01AM 45.0360 -55.4630 73° East 490 564 35,000  Level FlightAware
10:02AM 45.0580 -55.3590 73° East 490 564 35,000  Level FlightAware
10:02AM 45.0810 -55.2540 73° East 490 564 35,000  Level FlightAware
10:03AM 45.1030 -55.1500 73° East 490 564 35,000  Level FlightAware
10:04AM 45.1320 -55.0190 73° East 490 564 35,000  Level FlightAware
10:04AM 45.1540 -54.9150 73° East 490 564 35,000  Level FlightAware
10:05AM 45.2140 -54.5410 77° East 490 564 35,000  Level FlightAware
10:06AM 45.2430 -54.3990 74° East 490 564 35,000  Level FlightAware
10:06AM 45.2640 -54.2940 74° East 490 564 35,000  Level FlightAware
10:07AM 45.2850 -54.1880 74° East 490 564 35,000  Level FlightAware
10:08AM 45.3120 -54.0570 74° East 490 564 35,000  Level FlightAware
10:09AM 45.3330 -53.9510 74° East 490 564 35,000  Level FlightAware
10:09AM 45.3540 -53.8460 74° East 490 564 35,000  Level FlightAware
10:10AM 45.3750 -53.7400 74° East 490 564 35,000  Level FlightAware
10:11AM 45.3970 -53.6350 73° East 490 564 35,000  Level FlightAware
10:11AM 45.4180 -53.5290 74° East 490 564 35,000  Level FlightAware
10:12AM 45.4440 -53.3970 74° East 490 564 35,000  Level FlightAware
10:13AM 45.4660 -53.2920 73° East 490 564 35,000  Level FlightAware
10:13AM 45.4870 -53.1860 74° East 490 564 35,000  Level FlightAware
10:14AM 45.5080 -53.0800 74° East 490 564 35,000  Level FlightAware
10:15AM 45.5350 -52.9480 74° East 490 564 35,000  Level FlightAware
10:16AM 45.5833 -52.4333 74° East 490 564 35,000  Level Gander Center
10:17AM 45.6167 -52.2333 77° East 490 564 35,000  Level Gander Center
10:17AM 45.6333 -52.1500 74° East 490 564 35,000  Level Gander Center
10:18AM 45.6333 -52.0167 90° East 490 564 35,000  Level Moncton Center
10:19AM 45.6667 -51.8500 74° East 490 564 35,000  Level Moncton Center
10:19AM 45.6833 -51.7833 70° East 490 564 35,000  Level Gander Center
10:20AM 45.7167 -51.5833 77° East 480 552 35,000  Level Gander Center
10:21AM 45.7333 -51.4833 77° East 490 564 35,000  Level Gander Center
10:22AM 45.7667 -51.3000 75° East 490 564 35,000  Level Gander Center
10:22AM 45.7833 -51.2167 74° East 490 564 35,000  Level Gander Center
10:23AM 45.8000 -51.1000 78° East 490 564 35,000  Level Gander Center
10:24AM 45.8333 -50.9167 75° East 490 564 35,000  Level Gander Center
10:25AM 45.8833 -50.6500 75° East 490 564 35,000  Level Gander Center
10:26AM 45.9000 -50.4667 82° East 490 564 35,000  Level Gander Center
10:27AM 45.9167 -50.2667 83° East 490 564 35,000  Level Gander Center
10:29AM 45.9833 -49.9667 72° East 490 564 35,000  Level Gander Center
10:30AM 46.0167 -49.7667 76° East 490 564 35,000  Level Gander Center
10:31AM 46.0667 -49.5833 68° East 490 564 35,000  Level Gander Center
10:31AM 46.0833 -49.5333 64° Northeast 490 564 35,000  Level Gander Center
10:32AM 46.1333 -49.3500 68° East 490 564 35,000  Level Gander Center
10:33AM 46.1500 -49.2333 78° East 480 552 35,000  Level Gander Center
10:34AM 46.2000 -49.0500 68° East 480 552 35,000  Level Gander Center
10:35AM 46.2500 -48.8667 68° East 490 564 35,000  Level Gander Center
10:35AM 46.2500 -48.8167 90° East 490 564 35,000  Level Gander Center
10:36AM 46.3000 -48.6167 70° East 490 564 35,000  Level Gander Center
10:37AM 46.3333 -48.5000 67° East 480 552 35,000  Level Gander Center
10:38AM 46.3833 -48.2500 74° East 480 552 35,000  Level Gander Center
10:41AM 46.4456 -47.9914 71° East  Level FlightAware Approximate
10:48AM 46.7448 -46.7052 71° East  Level FlightAware Approximate
10:49AM 46.7864 -46.5204 72° East  Level FlightAware Approximate
10:50AM 46.8276 -46.3352 72° East  Level FlightAware Approximate
10:51AM 46.8686 -46.1497 72° East  Level FlightAware Approximate
10:52AM 46.9092 -45.9640 72° East  Level FlightAware Approximate
10:53AM 46.9496 -45.7780 72° East  Level FlightAware Approximate
10:54AM 46.9896 -45.5916 72° East  Level FlightAware Approximate
10:55AM 47.0294 -45.4051 73° East  Level FlightAware Approximate
10:56AM 47.0688 -45.2182 73° East  Level FlightAware Approximate
10:57AM 47.1080 -45.0311 73° East  Level FlightAware Approximate
10:58AM 47.1468 -44.8437 73° East  Level FlightAware Approximate
10:59AM 47.1854 -44.6560 73° East  Level FlightAware Approximate
11:00AM 47.2236 -44.4680 73° East  Level FlightAware Approximate
11:01AM 47.2615 -44.2798 73° East  Level FlightAware Approximate
11:02AM 47.2991 -44.0913 74° East  Level FlightAware Approximate
11:03AM 47.3364 -43.9025 74° East  Level FlightAware Approximate
11:04AM 47.3726 -43.7132 74° East  Level FlightAware Approximate
11:05AM 47.4079 -43.5234 75° East  Level FlightAware Approximate
11:06AM 47.4430 -43.3333 75° East  Level FlightAware Approximate
11:07AM 47.4777 -43.1430 75° East  Level FlightAware Approximate
11:08AM 47.5122 -42.9524 75° East  Level FlightAware Approximate
11:09AM 47.5463 -42.7616 75° East  Level FlightAware Approximate
11:10AM 47.5801 -42.5705 75° East  Level FlightAware Approximate
11:11AM 47.6135 -42.3792 75° East  Level FlightAware Approximate
11:12AM 47.6467 -42.1876 76° East  Level FlightAware Approximate
11:13AM 47.6796 -41.9958 76° East  Level FlightAware Approximate
11:14AM 47.7121 -41.8037 76° East  Level FlightAware Approximate
11:15AM 47.7443 -41.6114 76° East  Level FlightAware Approximate
11:16AM 47.7761 -41.4189 76° East  Level FlightAware Approximate
11:17AM 47.8077 -41.2261 76° East  Level FlightAware Approximate
11:18AM 47.8389 -41.0331 76° East  Level FlightAware Approximate
11:19AM 47.8698 -40.8399 77° East  Level FlightAware Approximate
11:20AM 47.9004 -40.6465 77° East  Level FlightAware Approximate
11:21AM 47.9307 -40.4528 77° East  Level FlightAware Approximate
11:22AM 47.9606 -40.2589 77° East  Level FlightAware Approximate
11:23AM 47.9902 -40.0647 77° East  Level FlightAware Approximate
11:24AM 48.0181 -39.8699 78° East  Level FlightAware Approximate
11:25AM 48.0450 -39.6747 78° East  Level FlightAware Approximate
11:26AM 48.0716 -39.4793 78° East  Level FlightAware Approximate
11:27AM 48.0978 -39.2836 79° East  Level FlightAware Approximate
11:28AM 48.1237 -39.0878 79° East  Level FlightAware Approximate
11:29AM 48.1493 -38.8918 79° East  Level FlightAware Approximate
11:30AM 48.1745 -38.6955 79° East  Level FlightAware Approximate
11:31AM 48.1994 -38.4991 79° East  Level FlightAware Approximate
11:32AM 48.2240 -38.3025 79° East  Level FlightAware Approximate
11:33AM 48.2482 -38.1058 79° East  Level FlightAware Approximate
11:34AM 48.2721 -37.9088 80° East  Level FlightAware Approximate
11:35AM 48.2957 -37.7116 80° East  Level FlightAware Approximate
11:36AM 48.3190 -37.5143 79° East  Level FlightAware Approximate
11:37AM 48.3434 -37.3172 79° East  Level FlightAware Approximate
11:38AM 48.3675 -37.1199 80° East  Level FlightAware Approximate
11:39AM 48.3912 -36.9225 80° East  Level FlightAware Approximate
11:40AM 48.4146 -36.7248 80° East  Level FlightAware Approximate
11:41AM 48.4377 -36.5270 80° East  Level FlightAware Approximate
11:42AM 48.4604 -36.3289 80° East  Level FlightAware Approximate
11:43AM 48.4828 -36.1307 80° East  Level FlightAware Approximate
11:44AM 48.5048 -35.9324 80° East  Level FlightAware Approximate
11:45AM 48.5265 -35.7338 81° East  Level FlightAware Approximate
11:46AM 48.5478 -35.5351 81° East  Level FlightAware Approximate
11:47AM 48.5688 -35.3362 81° East  Level FlightAware Approximate
11:48AM 48.5895 -35.1372 81° East  Level FlightAware Approximate
11:49AM 48.6098 -34.9380 81° East  Level FlightAware Approximate
11:50AM 48.6298 -34.7386 81° East  Level FlightAware Approximate
11:51AM 48.6494 -34.5391 81° East  Level FlightAware Approximate
11:52AM 48.6687 -34.3395 82° East  Level FlightAware Approximate
11:53AM 48.6877 -34.1396 82° East  Level FlightAware Approximate
11:54AM 48.7063 -33.9397 82° East  Level FlightAware Approximate
11:55AM 48.7245 -33.7395 82° East  Level FlightAware Approximate
11:56AM 48.7424 -33.5393 82° East  Level FlightAware Approximate
11:57AM 48.7600 -33.3389 82° East  Level FlightAware Approximate
11:58AM 48.7772 -33.1383 83° East  Level FlightAware Approximate
11:59AM 48.7941 -32.9377 83° East  Level FlightAware Approximate
12:00PM 48.8106 -32.7369 83° East  Level FlightAware Approximate
12:01PM 48.8267 -32.5359 83° East  Level FlightAware Approximate
12:02PM 48.8426 -32.3348 83° East  Level FlightAware Approximate
12:03PM 48.8580 -32.1336 83° East  Level FlightAware Approximate
12:04PM 48.8731 -31.9323 83° East  Level FlightAware Approximate
12:05PM 48.8879 -31.7309 84° East  Level FlightAware Approximate
12:06PM 48.9023 -31.5293 84° East  Level FlightAware Approximate
12:07PM 48.9164 -31.3277 84° East  Level FlightAware Approximate
12:08PM 48.9301 -31.1259 84° East  Level FlightAware Approximate
12:09PM 48.9434 -30.9240 84° East  Level FlightAware Approximate
12:10PM 48.9565 -30.7220 84° East  Level FlightAware Approximate
12:11PM 48.9691 -30.5199 84° East  Level FlightAware Approximate
12:12PM 48.9814 -30.3177 85° East  Level FlightAware Approximate
12:13PM 48.9934 -30.1154 85° East  Level FlightAware Approximate
12:14PM 49.0036 -29.9128 86° East  Level FlightAware Approximate
12:15PM 49.0117 -29.7100 86° East  Level FlightAware Approximate
12:16PM 49.0194 -29.5071 87° East  Level FlightAware Approximate
12:17PM 49.0267 -29.3041 87° East  Level FlightAware Approximate
12:18PM 49.0337 -29.1011 87° East  Level FlightAware Approximate
12:19PM 49.0404 -28.8980 87° East  Level FlightAware Approximate
12:20PM 49.0467 -28.6949 87° East  Level FlightAware Approximate
12:21PM 49.0526 -28.4917 87° East  Level FlightAware Approximate
12:22PM 49.0582 -28.2885 88° East  Level FlightAware Approximate
12:23PM 49.0634 -28.0853 88° East  Level FlightAware Approximate
12:24PM 49.0682 -27.8820 88° East  Level FlightAware Approximate
12:25PM 49.0728 -27.6786 88° East  Level FlightAware Approximate
12:26PM 49.0769 -27.4752 88° East  Level FlightAware Approximate
12:27PM 49.0807 -27.2718 88° East  Level FlightAware Approximate
12:28PM 49.0841 -27.0684 88° East  Level FlightAware Approximate
12:29PM 49.0872 -26.8649 89° East  Level FlightAware Approximate
12:30PM 49.0899 -26.6614 89° East  Level FlightAware Approximate
12:31PM 49.0923 -26.4579 89° East  Level FlightAware Approximate
12:32PM 49.0943 -26.2544 89° East  Level FlightAware Approximate
12:33PM 49.0959 -26.0508 89° East  Level FlightAware Approximate
12:34PM 49.0972 -25.8473 89° East  Level FlightAware Approximate
12:35PM 49.0982 -25.6437 90° East  Level FlightAware Approximate
12:36PM 49.0987 -25.4401 90° East  Level FlightAware Approximate
12:37PM 49.0989 -25.2365 90° East  Level FlightAware Approximate
12:38PM 49.0988 -25.0330 90° East  Level FlightAware Approximate
12:39PM 49.0983 -24.8294 90° East  Level FlightAware Approximate
12:40PM 49.0974 -24.6258 90° East  Level FlightAware Approximate
12:41PM 49.0962 -24.4223 90° East  Level FlightAware Approximate
12:42PM 49.0946 -24.2187 91° East  Level FlightAware Approximate
12:43PM 49.0927 -24.0152 91° East  Level FlightAware Approximate
12:44PM 49.0904 -23.8117 91° East  Level FlightAware Approximate
12:45PM 49.0878 -23.6082 91° East  Level FlightAware Approximate
12:46PM 49.0848 -23.4047 91° East  Level FlightAware Approximate
12:47PM 49.0814 -23.2013 91° East  Level FlightAware Approximate
12:48PM 49.0777 -22.9978 92° East  Level FlightAware Approximate
12:49PM 49.0736 -22.7944 92° East  Level FlightAware Approximate
12:50PM 49.0692 -22.5911 92° East  Level FlightAware Approximate
12:51PM 49.0651 -22.3878 91° East  Level FlightAware Approximate
12:52PM 49.0615 -22.1844 91° East  Level FlightAware Approximate
12:53PM 49.0575 -21.9811 92° East  Level FlightAware Approximate
12:54PM 49.0532 -21.7778 92° East  Level FlightAware Approximate
12:55PM 49.0485 -21.5745 92° East  Level FlightAware Approximate
12:56PM 49.0434 -21.3713 92° East  Level FlightAware Approximate
12:57PM 49.0380 -21.1681 92° East  Level FlightAware Approximate
12:58PM 49.0323 -20.9650 92° East  Level FlightAware Approximate
12:59PM 49.0261 -20.7619 93° East  Level FlightAware Approximate
01:00PM 49.0197 -20.5589 93° East  Level FlightAware Approximate
01:01PM 49.0128 -20.3559 93° East  Level FlightAware Approximate
01:02PM 49.0056 -20.1530 93° East  Level FlightAware Approximate
01:03PM 49.0045 -19.9506 82° East  Level FlightAware Approximate
01:04PM 49.0226 -19.7492 82° East  Level FlightAware Approximate
01:05PM 49.0403 -19.5477 82° East  Level FlightAware Approximate
01:06PM 49.0577 -19.3461 82° East  Level FlightAware Approximate
01:07PM 49.0747 -19.1443 83° East  Level FlightAware Approximate
01:08PM 49.0914 -18.9424 83° East  Level FlightAware Approximate
01:09PM 49.1077 -18.7403 83° East  Level FlightAware Approximate
01:10PM 49.1237 -18.5382 83° East  Level FlightAware Approximate
01:11PM 49.1393 -18.3358 83° East  Level FlightAware Approximate
01:12PM 49.1546 -18.1334 83° East  Level FlightAware Approximate
01:13PM 49.1695 -17.9308 84° East  Level FlightAware Approximate
01:14PM 49.1841 -17.7282 84° East  Level FlightAware Approximate
01:15PM 49.1982 -17.5254 84° East  Level FlightAware Approximate
01:16PM 49.2125 -17.3225 84° East  Level FlightAware Approximate
01:17PM 49.2264 -17.1196 84° East  Level FlightAware Approximate
01:18PM 49.2399 -16.9165 84° East  Level FlightAware Approximate
01:19PM 49.2531 -16.7133 84° East  Level FlightAware Approximate
01:20PM 49.2660 -16.5100 84° East  Level FlightAware Approximate
01:21PM 49.2784 -16.3066 85° East  Level FlightAware Approximate
01:22PM 49.2906 -16.1031 85° East  Level FlightAware Approximate
01:23PM 49.3023 -15.8996 85° East  Level FlightAware Approximate
01:24PM 49.3138 -15.6959 85° East  Level FlightAware Approximate
01:25PM 49.3248 -15.4921 85° East  Level FlightAware Approximate
01:26PM 49.3355 -15.2882 85° East  Level FlightAware Approximate
01:27PM 49.3458 -15.0843 85° East  Level FlightAware Approximate
01:28PM 49.3561 -14.8802 85° East  Level FlightAware Approximate
01:29PM 49.3663 -14.6762 86° East  Level FlightAware Approximate
01:30PM 49.3761 -14.4720 86° East  Level FlightAware Approximate
01:31PM 49.3856 -14.2678 86° East  Level FlightAware Approximate
01:32PM 49.3947 -14.0635 86° East  Level FlightAware Approximate
01:33PM 49.4034 -13.8591 86° East  Level FlightAware Approximate
01:34PM 49.4118 -13.6547 86° East  Level FlightAware Approximate
01:35PM 49.4198 -13.4501 86° East  Level FlightAware Approximate
01:36PM 49.4274 -13.2456 87° East  Level FlightAware Approximate
01:37PM 49.4347 -13.0409 87° East  Level FlightAware Approximate
01:38PM 49.4416 -12.8362 87° East  Level FlightAware Approximate
01:39PM 49.4482 -12.6315 87° East  Level FlightAware Approximate
01:40PM 49.4544 -12.4267 87° East  Level FlightAware Approximate
01:41PM 49.4603 -12.2218 87° East  Level FlightAware Approximate
01:42PM 49.4657 -12.0169 88° East  Level FlightAware Approximate
01:43PM 49.4709 -11.8119 88° East  Level FlightAware Approximate
01:44PM 49.4756 -11.6069 88° East  Level FlightAware Approximate
01:45PM 49.4800 -11.4019 88° East  Level FlightAware Approximate
01:46PM 49.4840 -11.1968 88° East  Level FlightAware Approximate
01:47PM 49.4877 -10.9917 88° East  Level FlightAware Approximate
01:48PM 49.4910 -10.7866 89° East  Level FlightAware Approximate
01:49PM 49.4940 -10.5814 89° East  Level FlightAware Approximate
01:50PM 49.4965 -10.3762 89° East  Level FlightAware Approximate
01:51PM 49.4988 -10.1710 89° East  Level FlightAware Approximate
01:51PM 49.6890 -10.0250 89° East 510 587 39,000  Level FlightAware
01:51PM 49.6740 -9.8520 98° East 512 589 39,000  Level FlightAware
01:52PM 49.6620 -9.7110 97° East 512 589 39,000  Level FlightAware
01:53PM 49.6490 -9.5630 98° East 513 590 39,000  Level FlightAware
01:53PM 49.6350 -9.4000 97° East 512 589 39,000  Level FlightAware
01:54PM 49.6210 -9.2520 98° East 512 589 39,000  Level FlightAware
01:55PM 49.6070 -9.0930 98° East 513 590 39,000 -1,200 Level FlightAware
01:55PM 49.5951 -8.9705 98° East 476 548 37,500  Descending FlightAware UK
01:56PM 49.5940 -8.9520 98° East 513 590 39,000  Climbing FlightAware
01:56PM 49.5870 -8.8838 98° East 476 548 37,500 -2,700 Descending FlightAware UK
01:56PM 49.5809 -8.8188 98° East 476 548 37,500 3,060 Level FlightAware UK
01:56PM 49.5780 -8.7900 98° East 512 589 39,000  Climbing FlightAware
01:57PM 49.5706 -8.7107 98° East 478 550 37,500 -2,460 Descending FlightAware UK
01:57PM 49.5644 -8.6459 98° East 476 548 37,500 4,260 Level FlightAware UK
01:57PM 49.5640 -8.6420 98° East 512 589 39,000  Climbing FlightAware
01:57PM 49.5581 -8.5812 98° East 476 548 37,500 -2,760 Descending FlightAware UK
01:58PM 49.5517 -8.5165 99° East 476 548 37,500 3,600 Level FlightAware UK
01:58PM 49.5500 -8.4990 99° East 511 588 39,000  Climbing FlightAware
01:58PM 49.5431 -8.4302 99° East 476 548 37,500 -2,580 Descending FlightAware UK
01:58PM 49.5367 -8.3656 99° East 474 545 37,500 3,180 Level FlightAware UK
01:58PM 49.5340 -8.3410 99° East 510 587 39,000  Climbing FlightAware
01:59PM 49.5260 -8.2581 99° East 474 545 37,500 -2,400 Descending FlightAware UK
01:59PM 49.5196 -8.1936 99° East 474 545 37,500 4,500 Level FlightAware UK
01:59PM 49.5200 -8.1970 99° East 509 586 39,000  Climbing FlightAware
01:59PM 49.5140 -8.1290 99° East 474 545 37,500 -2,700 Descending FlightAware UK
02:00PM 49.5108 -8.0639 94° East 474 545 37,500 3,060 Level FlightAware UK
02:00PM 49.5110 -8.0310 94° East 512 589 39,000  Climbing FlightAware
02:00PM 49.5082 -7.9538 94° East 474 545 37,500  Descending FlightAware UK
02:00PM 49.5060 -7.8850 94° East 512 589 39,000  Climbing FlightAware
02:01PM 49.5044 -7.8232 94° East 472 543 37,500 -2,760 Descending FlightAware UK
02:01PM 49.5026 -7.7578 92° East 474 545 37,500 3,600 Level FlightAware UK
02:01PM 49.5030 -7.7400 92° East 510 587 39,000  Climbing FlightAware
02:01PM 49.5005 -7.6708 92° East 472 543 37,500 -2,580 Descending FlightAware UK
02:02PM 49.4990 -7.6057 92° East 470 541 37,500 3,180 Level FlightAware UK
02:02PM 49.4980 -7.5810 92° East 509 586 39,000  Climbing FlightAware
02:02PM 49.4961 -7.4973 92° East 466 536 37,500 -2,400 Descending FlightAware UK
02:03PM 49.4943 -7.4322 92° East 468 539 37,500 4,500 Level FlightAware UK
02:03PM 49.4940 -7.4330 92° East 509 586 39,000  Climbing FlightAware
02:03PM 49.4924 -7.3672 92° East 470 541 37,500 -2,700 Descending FlightAware UK
02:03PM 49.4906 -7.3022 92° East 470 541 37,500 3,060 Level FlightAware UK
02:03PM 49.4900 -7.2710 92° East 509 586 39,000  Climbing FlightAware
02:04PM 49.4878 -7.1940 92° East 470 541 37,500 -2,460 Descending FlightAware UK
02:04PM 49.4860 -7.1290 92° East 470 541 37,500 4,260 Level FlightAware UK
02:04PM 49.4860 -7.1300 92° East 508 585 39,000  Climbing FlightAware
02:04PM 49.4841 -7.0642 92° East 470 541 37,500 -2,760 Descending FlightAware UK
02:05PM 49.4819 -6.9994 93° East 468 539 37,500 3,600 Level FlightAware UK
02:05PM 49.4810 -6.9820 93° East 507 583 39,000  Climbing FlightAware
02:05PM 49.4791 -6.9124 93° East 470 541 37,500 -2,580 Descending FlightAware UK
02:05PM 49.4770 -6.8477 93° East 468 539 37,500 3,180 Level FlightAware UK
02:05PM 49.4760 -6.8240 93° East 507 583 39,000  Climbing FlightAware
02:06PM 49.4734 -6.7400 93° East 468 539 37,500  Descending FlightAware UK
02:06PM 49.4710 -6.6770 93° East 507 583 39,000  Climbing FlightAware
02:06PM 49.4693 -6.6107 93° East 468 539 37,500 -2,700 Descending FlightAware UK
02:07PM 49.4670 -6.5460 93° East 468 539 37,500 3,060 Level FlightAware UK
02:07PM 49.4660 -6.5150 93° East 507 583 39,000  Climbing FlightAware
02:07PM 49.4632 -6.4383 93° East 466 536 37,500 -2,460 Descending FlightAware UK
02:07PM 49.4608 -6.3735 93° East 466 536 37,500 4,260 Level FlightAware UK
02:07PM 49.4610 -6.3710 93° East 508 585 39,000  Climbing FlightAware
02:08PM 49.4585 -6.3087 93° East 468 539 37,500 -2,760 Descending FlightAware UK
02:08PM 49.4560 -6.2439 93° East 470 541 37,500 3,600 Level FlightAware UK
02:08PM 49.4550 -6.2270 93° East 507 583 39,000  Climbing FlightAware
02:08PM 49.4529 -6.1576 93° East 470 541 37,500 -2,580 Descending FlightAware UK
02:09PM 49.4506 -6.0922 93° East 470 541 37,500 3,180 Level FlightAware UK
02:09PM 49.4490 -6.0660 93° East 506 582 39,000  Climbing FlightAware
02:09PM 49.4465 -5.9845 93° East 470 541 37,500 -2,400 Descending FlightAware UK
02:10PM 49.4439 -5.9200 94° East 470 541 37,500 4,500 Level FlightAware UK
02:10PM 49.4430 -5.9190 94° East 505 581 39,000  Climbing FlightAware
02:10PM 49.4412 -5.8555 94° East 470 541 37,500 -2,700 Descending FlightAware UK
02:10PM 49.4385 -5.7910 94° East 470 541 37,500 3,720 Level FlightAware UK
02:10PM 49.4380 -5.7830 94° East 506 582 39,000  Climbing FlightAware
02:11PM 49.4349 -5.7052 94° East 470 541 37,500 -2,520 Descending FlightAware UK
02:11PM 49.4321 -5.6408 94° East 468 539 37,500 3,300 Level FlightAware UK
02:11PM 49.4310 -5.6150 94° East 506 582 39,000  Climbing FlightAware
02:11PM 49.4286 -5.5549 94° East 468 539 37,500 -2,340 Descending FlightAware UK
02:12PM 49.4248 -5.4690 94° East 468 539 37,500 3,600 Level FlightAware UK
02:12PM 49.4250 -5.4790 94° East 506 582 39,000  Climbing FlightAware
02:12PM 49.4217 -5.4048 94° East 470 541 37,500 -2,580 Descending FlightAware UK
02:12PM 49.4188 -5.3405 94° East 470 541 37,500 3,180 Level FlightAware UK
02:12PM 49.4170 -5.3180 94° East 504 580 39,000  Climbing FlightAware
02:13PM 49.4129 -5.2120 94° East 470 541 37,500  Descending FlightAware UK
02:13PM 49.4110 -5.1760 94° East 503 579 39,000  Climbing FlightAware
02:13PM 49.4083 -5.1054 94° East 468 539 37,500 -2,700 Descending FlightAware UK
02:14PM 49.4079 -5.0407 90° East 468 539 37,500 3,060 Level FlightAware UK
02:14PM 49.4080 -5.0190 90° East 504 580 39,000  Climbing FlightAware
02:14PM 49.4075 -4.9338 90° East 466 536 37,500 -2,460 Descending FlightAware UK
02:14PM 49.4076 -4.8696 90° East 466 536 37,500 4,260 Level FlightAware UK
02:14PM 49.4080 -4.8760 90° East 503 579 39,000  Climbing FlightAware
02:15PM 49.4080 -4.8055 90° East 466 536 37,500 -2,340 Descending FlightAware UK
02:15PM 49.4089 -4.7200 89° East 464 534 37,500 3,000 Level FlightAware UK
02:15PM 49.4090 -4.7090 89° East 503 579 39,000  Climbing FlightAware
02:16PM 49.4100 -4.6345 89° East 464 534 37,500 -2,460 Descending FlightAware UK
02:16PM 49.4109 -4.5695 89° East 464 534 37,500 4,080 Level FlightAware UK
02:16PM 49.4110 -4.5700 89° East 504 580 39,000  Climbing FlightAware
02:16PM 49.4118 -4.5054 89° East 466 536 37,500 -2,820 Descending FlightAware UK
02:16PM 49.4126 -4.4419 89° East 462 532 37,500 3,600 Level FlightAware UK
02:17PM 49.4120 -4.4310 89° East 504 580 39,000  Climbing FlightAware
02:17PM 49.4133 -4.3563 89° East 462 532 37,500 -2,700 Descending FlightAware UK
02:17PM 49.4138 -4.2920 89° East 464 534 37,500 3,060 Level FlightAware UK
02:17PM 49.4140 -4.2660 89° East 505 581 39,000  Climbing FlightAware
02:18PM 49.4145 -4.1623 89° East 462 532 37,500  Descending FlightAware UK
02:18PM 49.4140 -4.1190 89° East 506 582 39,000  Climbing FlightAware
02:18PM 49.4150 -4.0331 89° East 462 532 37,500 -2,280 Descending FlightAware UK
02:19PM 49.4153 -3.9678 90° East 466 536 37,500 3,900 Level FlightAware UK
02:19PM 49.4150 -3.9610 90° East 507 583 39,000  Climbing FlightAware
02:19PM 49.4155 -3.8600 90° East 466 536 37,500  Descending FlightAware UK
02:19PM 49.4150 -3.8210 90° East 507 583 39,000  Climbing FlightAware
02:20PM 49.4155 -3.7521 90° East 466 536 37,500 -2,760 Descending FlightAware UK
02:20PM 49.4156 -3.6874 90° East 464 534 37,500  Level FlightAware UK
02:20PM 49.4156 -3.6227 90° East 464 534 37,500  Level FlightAware UK
02:21PM 49.4154 -3.5579 90° East 464 534 37,500  Level FlightAware UK
02:21PM 49.4157 -3.4932 90° East 464 534 37,500  Level FlightAware UK
02:21PM 49.4155 -3.4284 90° East 464 534 37,500  Level FlightAware UK
02:21PM 49.4152 -3.3629 90° East 464 534 37,500  Level FlightAware UK
02:22PM 49.4149 -3.2981 90° East 462 532 37,500  Level FlightAware UK
02:22PM 49.4146 -3.2333 90° East 462 532 37,500  Level FlightAware UK
02:22PM 49.4143 -3.1684 90° East 462 532 37,500  Level FlightAware UK
02:23PM 49.4140 -3.1027 90° East 462 532 37,500  Level FlightAware UK
02:23PM 49.4136 -3.0378 90° East 466 536 37,500  Level FlightAware UK
02:23PM 49.4133 -2.9726 90° East 464 534 37,500  Level FlightAware UK
02:24PM 49.4129 -2.9075 90° East 464 534 37,500  Level FlightAware UK
02:24PM 49.4122 -2.8424 91° East 462 532 37,500  Level FlightAware UK
02:24PM 49.4112 -2.7330 91° East 462 532 37,500  Level FlightAware UK
02:25PM 49.4107 -2.6676 91° East 468 539 37,500  Level FlightAware UK
02:25PM 49.4092 -2.5361 91° East 468 539 37,500  Level FlightAware UK
02:26PM 49.4086 -2.4707 91° East 466 536 37,500  Level FlightAware UK
02:26PM 49.4080 -2.4053 91° East 468 539 37,500  Level FlightAware UK
02:26PM 49.4072 -2.3181 91° East 468 539 37,500  Level FlightAware UK
02:27PM 49.4065 -2.2526 91° East 472 543 37,500  Level FlightAware UK
02:27PM 49.4057 -2.1865 91° East 468 539 37,500 3,600 Level FlightAware UK
02:27PM 49.4053 -2.1616 91° East 511 588 39,000  Climbing FlightAware ADS-B
02:27PM 49.4044 -2.0995 91° East 470 541 37,500  Descending FlightAware UK
02:28PM 49.4032 -2.0169 91° East 511 588 39,000  Climbing FlightAware ADS-B
02:28PM 49.4020 -1.9259 91° East 468 539 37,500 -1,920 Descending FlightAware UK
02:28PM 49.4007 -1.8384 91° East 470 541 37,500 2,700 Level FlightAware UK
02:29PM 49.4002 -1.8075 91° East 511 588 39,000  Climbing FlightAware ADS-B
02:29PM 49.3992 -1.7517 91° East 468 539 37,500  Descending FlightAware UK
02:29PM 49.3979 -1.6741 91° East 508 585 39,000  Climbing FlightAware ADS-B
02:30PM 49.3963 -1.5787 91° East 468 539 37,500  Descending FlightAware UK
02:30PM 49.3950 -1.5198 91° East 507 583 39,000 1,860 Climbing FlightAware ADS-B
02:30PM 49.3929 -1.4088 92° East 506 582 39,000 -1,920 Level FlightAware ADS-B
02:31PM 49.3917 -1.3416 92° East 466 536 37,500  Descending FlightAware UK
02:31PM 49.3910 -1.2870 92° East 505 581 39,000 2,400 Climbing FlightAware
02:31PM 49.3889 -1.2122 92° East 505 581 39,000 -2,520 Level FlightAware ADS-B
02:32PM 49.3876 -1.1485 92° East 464 534 37,500  Descending FlightAware UK
02:32PM 49.3869 -1.1192 92° East 506 582 39,000 4,500 Climbing FlightAware ADS-B
02:32PM 49.3860 -1.0796 92° East 505 581 39,000 -3,360 Level FlightAware ADS-B
02:32PM 49.3847 -1.0197 92° East 462 532 37,500 -600 Descending FlightAware UK
02:33PM 49.3835 -0.9688 92° East 505 581 38,700 -1,680 Climbing FlightAware ADS-B
02:33PM 49.3819 -0.8905 92° East 458 527 36,500 -2,280 Descending FlightAware UK
02:33PM 49.3800 -0.8450 92° East 501 577 37,300 -3,300 Climbing FlightAware
02:34PM 49.3775 -0.7198 92° East 464 534 33,900 -3,300 Descending FlightAware UK
02:34PM 49.3770 -0.6940 92° East 510 587 35,100 -3,360 Climbing FlightAware
02:34PM 49.3740 -0.5893 92° East 468 539 31,900 -3,360 Descending FlightAware UK
02:35PM 49.3720 -0.5340 92° East 514 592 32,600 -3,600 Climbing FlightAware
02:35PM 49.3685 -0.3914 92° East 474 545 28,700 -3,480 Descending FlightAware UK
02:35PM 49.3690 -0.3960 92° East 518 596 30,300 -3,720 Climbing FlightAware
02:35PM 49.3666 -0.3248 92° East 478 550 27,600 -2,700 Descending FlightAware UK
02:36PM 49.3610 -0.2320 92° East 507 583 28,300 600 Climbing FlightAware
02:36PM 49.3547 -0.1510 97° East 501 577 28,100 -3,000 Descending FlightAware ADS-B
02:37PM 49.3498 -0.0904 97° East 454 522 26,500 -2,400 Descending FlightAware UK
02:37PM 49.3422 -0.0076 98° East 458 527 26,500 2,040 Level FlightAware UK
02:37PM 49.3380 0.0540 98° East 497 572 28,000 2,760 Climbing FlightAware
02:37PM 49.3372 0.1031 91° East 499 574 28,000 -2,700 Level FlightAware ADS-B
02:38PM 49.3367 0.1830 91° East 466 536 26,500 -2,940 Descending FlightAware UK
02:38PM 49.3359 0.3114 91° East 462 532 25,200 -1,080 Descending FlightAware UK
02:39PM 49.3350 0.3584 91° East 502 578 25,600 -1,860 Climbing FlightAware ADS-B
02:39PM 49.3322 0.4774 92° East 488 562 23,700 -4,260 Descending FlightAware ADS-B
02:40PM 49.3295 0.5810 92° East 436 502 21,100 -3,900 Descending FlightAware UK
02:40PM 49.3279 0.6402 92° East 442 509 20,600 3,120 Descending FlightAware UK
02:40PM 49.3280 0.6310 92° East 466 536 22,200 -1,680 Climbing FlightAware
02:40PM 49.3260 0.6995 92° East 444 511 20,100 -2,220 Descending FlightAware UK
02:40PM 49.3253 0.7224 92° East 465 535 21,400 -1,800 Climbing FlightAware ADS-B
02:41PM 49.3229 0.7957 92° East 436 502 19,200 -1,800 Descending FlightAware UK
02:41PM 49.3223 0.8173 92° East 441 507 20,500 -1,800 Climbing FlightAware ADS-B
02:41PM 49.3206 0.8705 92° East 424 488 18,500 -1,560 Descending FlightAware UK
02:42PM 49.3193 0.9128 92° East 432 497 19,700 -1,620 Climbing FlightAware ADS-B
02:42PM 49.3178 0.9622 92° East 418 481 17,700 -1,620 Descending FlightAware UK
02:42PM 49.3165 1.0045 92° East 432 497 18,900 -1,680 Climbing FlightAware ADS-B
02:42PM 49.3142 1.0727 92° East 418 481 16,700 -1,800 Descending FlightAware UK
02:43PM 49.3126 1.1267 92° East 428 493 17,700 -1,680 Climbing FlightAware ADS-B
02:43PM 49.3111 1.1825 92° East 412 474 15,700 -1,620 Descending FlightAware UK
02:43PM 49.3100 1.2198 92° East 421 484 16,900 -1,620 Climbing FlightAware ADS-B
02:43PM 49.3082 1.2707 92° East 408 470 14,900 -1,500 Descending FlightAware UK
02:44PM 49.3070 1.3103 92° East 407 468 16,100 -1,680 Climbing FlightAware ADS-B
02:44PM 49.3049 1.3744 92° East 398 458 13,900 -1,620 Descending FlightAware UK
02:44PM 49.3042 1.3985 92° East 403 464 15,300 -1,500 Climbing FlightAware ADS-B
02:44PM 49.3028 1.4431 92° East 396 456 13,300 -1,560 Descending FlightAware UK
02:45PM 49.3013 1.4830 92° East 396 456 14,500 -1,500 Climbing FlightAware ADS-B
02:45PM 49.2993 1.5429 92° East 380 437 12,400 -1,620 Descending FlightAware UK
02:45PM 49.2984 1.5683 92° East 381 438 13,700 -1,200 Climbing FlightAware ADS-B
02:46PM 49.2963 1.6231 92° East 364 419 11,800 -1,020 Descending FlightAware UK
02:46PM 49.2955 1.6488 92° East 358 412 13,200 -840 Climbing FlightAware ADS-B
02:46PM 49.2938 1.6976 92° East 344 396 11,400 -720 Descending FlightAware UK
02:46PM 49.2933 1.7151 92° East 342 394 12,900 -840 Climbing FlightAware ADS-B
02:47PM 49.2915 1.7699 92° East 338 389 11,000 -840 Descending FlightAware UK
02:47PM 49.2907 1.7874 92° East 337 388 12,500 -780 Climbing FlightAware ADS-B
02:47PM 49.2891 1.8271 92° East 334 384 10,700 -1,020 Descending FlightAware UK
02:47PM 49.2871 1.8611 92° East 337 388 12,000 -840 Climbing FlightAware ADS-B
02:47PM 49.2854 1.8986 92° East 334 384 10,300 -840 Descending FlightAware UK
02:48PM 49.2837 1.9308 92° East 323 372 11,600 -840 Climbing FlightAware ADS-B
02:48PM 49.2819 1.9658 92° East 316 364 9,900 -720 Descending FlightAware UK
02:48PM 49.2810 1.9884 92° East 307 353 11,300 1,680 Climbing FlightAware ADS-B
02:49PM 49.2784 2.0452 94° East 291 335 11,000 -2,700 Descending FlightAware ADS-B
02:49PM 49.2770 2.0799 94° East 1 1 9,400  Descending FlightAware UK
02:49PM 49.2755 2.1085 94° East 292 336 11,000 120 Climbing FlightAware ADS-B
02:49PM 49.2731 2.1534 94° East 294 338 9,500  Descending FlightAware UK
02:50PM 49.2724 2.1726 94° East 294 338 11,000  Climbing FlightAware ADS-B
02:50PM 49.2697 2.2293 94° East 294 338 9,500  Descending FlightAware UK
02:50PM 49.2689 2.2430 94° East 288 331 11,000  Climbing FlightAware ADS-B
02:51PM 49.2670 2.2902 94° East 272 313 9,500  Descending FlightAware UK
02:51PM 49.2660 2.3025 94° East 262 302 11,000  Climbing FlightAware ADS-B
02:51PM 49.2650 2.3339 94° East 260 299 9,500  Descending FlightAware UK
02:51PM 49.2632 2.3590 94° East 258 297 11,000 1,860 Climbing FlightAware ADS-B
02:52PM 49.2602 2.4173 94° East 260 299 11,000 -600 Level FlightAware ADS-B
02:52PM 49.2572 2.4752 95° East 256 295 10,400 -1,260 Descending FlightAware ADS-B
02:53PM 49.2556 2.5060 95° East 257 296 10,000 -1,380 Descending FlightAware ADS-B
02:53PM 49.2541 2.5223 98° East 259 298 9,800 -1,200 Descending FlightAware ADS-B
02:53PM 49.2507 2.5528 100° East 257 296 9,500 -1,080 Descending FlightAware ADS-B
02:53PM 49.2481 2.5760 100° East 255 293 9,300 -1,080 Descending FlightAware ADS-B
02:53PM 49.2450 2.6025 100° East 253 291 9,000 -1,200 Descending FlightAware ADS-B
02:54PM 49.2417 2.6307 100° East 251 289 8,700 -1,140 Descending FlightAware ADS-B
02:54PM 49.2385 2.6569 101° East 250 288 8,400 -1,200 Descending FlightAware ADS-B
02:54PM 49.2353 2.6845 100° East 249 287 8,100 -1,080 Descending FlightAware ADS-B
02:54PM 49.2326 2.7072 100° East 249 287 7,900 -1,080 Descending FlightAware ADS-B
02:55PM 49.2293 2.7348 100° East 249 287 7,600 -1,320 Descending FlightAware ADS-B
02:55PM 49.2258 2.7642 100° East 249 287 7,200 -1,200 Descending FlightAware ADS-B
02:56PM 49.2200 2.8142 100° East 249 287 6,700 -1,080 Descending FlightAware ADS-B
02:56PM 49.2177 2.8331 101° East 246 283 6,500 -1,140 Descending FlightAware ADS-B
02:56PM 49.2163 2.8416 104° East 246 283 6,400 -1,500 Descending FlightAware ADS-B
02:56PM 49.2150 2.8464 112° Southeast 248 285 6,300 -1,740 Descending FlightAware ADS-B
02:56PM 49.2127 2.8526 120° Southeast 248 285 6,200 -900 Descending FlightAware ADS-B
02:56PM 49.2104 2.8582 122° Southeast 247 284 6,200 -1,020 Level FlightAware ADS-B
02:56PM 49.2082 2.8622 130° Southeast 246 283 6,100 -1,320 Descending FlightAware ADS-B
02:56PM 49.1961 2.8830 132° Southeast 245 282 5,800 -1,020 Descending FlightAware ADS-B
02:57PM 49.1850 2.9028 131° Southeast 245 282 5,600 -1,020 Descending FlightAware ADS-B
02:57PM 49.1737 2.9227 131° Southeast 244 281 5,300 -1,260 Descending FlightAware ADS-B
02:57PM 49.1644 2.9400 129° Southeast 243 280 5,000 -1,380 Descending FlightAware ADS-B
02:57PM 49.1601 2.9474 132° Southeast 244 281 4,900 -1,380 Descending FlightAware ADS-B
02:57PM 49.1569 2.9517 139° Southeast 243 280 4,800 -1,740 Descending FlightAware ADS-B
02:57PM 49.1535 2.9544 153° Southeast 243 280 4,700 -900 Descending FlightAware ADS-B
02:57PM 49.1494 2.9571 156° South 240 276 4,700 -720 Level FlightAware ADS-B
02:57PM 49.1443 2.9596 162° South 236 272 4,600 -1,200 Descending FlightAware ADS-B
02:57PM 49.1389 2.9615 167° South 233 268 4,500 -600 Descending FlightAware ADS-B
02:58PM 49.1232 2.9666 168° South 226 260 4,400 -540 Descending FlightAware ADS-B
02:58PM 49.1160 2.9690 168° South 222 255 4,300 -600 Descending FlightAware ADS-B
02:58PM 49.1011 2.9746 166° South 214 246 4,200 -420 Descending FlightAware ADS-B
02:58PM 49.0848 2.9804 167° South 202 232 4,100 -420 Descending FlightAware ADS-B
02:59PM 49.0712 2.9856 166° South 189 217 4,000 -240 Descending FlightAware ADS-B
02:59PM 49.0589 2.9900 167° South 186 214 4,000  Level FlightAware ADS-B
02:59PM 49.0510 2.9928 167° South 192 221 4,000  Level FlightAware ADS-B
02:59PM 49.0470 2.9931 178° South 192 221 4,000  Level FlightAware ADS-B
02:59PM 49.0432 2.9923 188° South 189 217 4,000  Level FlightAware ADS-B
02:59PM 49.0373 2.9879 206° Southwest 184 212 4,000  Level FlightAware ADS-B
02:59PM 49.0343 2.9834 224° Southwest 180 207 4,000  Level FlightAware ADS-B
02:59PM 49.0326 2.9805 229° Southwest 179 206 4,000  Level FlightAware ADS-B
03:00PM 49.0302 2.9752 235° Southwest 178 205 4,000  Level FlightAware ADS-B
03:00PM 49.0260 2.9645 239° Southwest 180 207 4,000  Level FlightAware ADS-B
03:00PM 49.0189 2.9466 239° Southwest 189 217 4,000  Level FlightAware ADS-B
03:00PM 49.0145 2.9353 239° Southwest 189 217 4,000  Level FlightAware ADS-B
03:00PM 49.0129 2.9304 243° Southwest 186 214 4,000  Level FlightAware ADS-B
03:00PM 49.0120 2.9267 250° West 185 213 4,000  Level FlightAware ADS-B
03:00PM 49.0110 2.9187 259° West 187 215 4,000  Level FlightAware ADS-B
03:00PM 49.0107 2.9136 265° West 187 215 4,000  Level FlightAware ADS-B
03:01PM 49.0105 2.8976 269° West 189 217 4,000  Level FlightAware ADS-B
03:01PM 49.0102 2.8895 267° West 190 219 4,000  Level FlightAware ADS-B
03:01PM 49.0098 2.8843 263° West 191 220 4,000 -960 Level FlightAware ADS-B
03:01PM 49.0085 2.8640 264° West 193 222 3,700 -1,200 Descending FlightAware ADS-B
03:01PM 49.0075 2.8438 266° West 190 219 3,400 -1,020 Descending FlightAware ADS-B
03:01PM 49.0069 2.8331 265° West 190 219 3,300 -960 Descending FlightAware ADS-B
03:02PM 49.0058 2.8108 266° West 187 215 3,000 -1,020 Descending FlightAware ADS-B
03:02PM 49.0044 2.7848 265° West 183 211 2,700 -1,020 Descending FlightAware ADS-B
03:02PM 49.0034 2.7642 266° West 183 211 2,400 -1,140 Descending FlightAware ADS-B
03:03PM 49.0024 2.7452 265° West 181 208 2,100 -1,020 Descending FlightAware ADS-B
03:03PM 49.0013 2.7251 265° West 180 207 1,900 -900 Descending FlightAware ADS-B
03:03PM 49.0001 2.7021 265° West 166 191 1,600 -900 Descending FlightAware ADS-B
03:03PM 48.9993 2.6844 266° West 152 175 1,400 -840 Descending FlightAware ADS-B
03:04PM 48.9984 2.6693 265° West 139 160 1,200 -780 Descending FlightAware ADS-B
03:04PM 48.9976 2.6536 266° West 138 159 1,000 -660 Descending FlightAware ADS-B
03:04PM 48.9969 2.6430 264° West 138 159 900 -780 Descending FlightAware ADS-B
03:04PM 48.9963 2.6304 266° West 138 159 700 -780 Descending FlightAware ADS-B
03:05PM 48.9958 2.6187 266° West 138 159 600 -780 Descending FlightAware ADS-B
03:05PM 48.9952 2.6070 266° West 139 160 400 -1,020 Descending FlightAware ADS-B
03:14PM 47.6017 -1.7406 62° Northeast  Level Estimated
03:15PM 47.6640 -1.5657 62° Northeast  Level Estimated
03:16PM 47.7259 -1.3904 62° Northeast  Level Estimated
03:17PM 47.7877 -1.2146 62° Northeast  Level Estimated
03:18PM 47.8491 -1.0385 62° Northeast  Level Estimated
03:19PM 47.9103 -0.8619 63° Northeast  Level Estimated
03:20PM 47.9712 -0.6849 63° Northeast  Level Estimated
03:21PM 48.0318 -0.5075 63° Northeast  Level Estimated
03:22PM 48.0921 -0.3296 63° Northeast  Level Estimated
03:23PM 48.1522 -0.1514 63° Northeast  Level Estimated
03:24PM 48.2120 0.0273 63° Northeast  Level Estimated
03:25PM 48.2715 0.2063 63° Northeast  Level Estimated
03:26PM 48.3308 0.3859 64° Northeast  Level Estimated
03:27PM 48.3897 0.5658 64° Northeast  Level Estimated
03:28PM 48.4484 0.7461 64° Northeast  Level Estimated
03:29PM 48.5068 0.9268 64° Northeast  Level Estimated
03:30PM 48.5649 1.1080 64° Northeast  Level Estimated
03:31PM 48.6227 1.2896 64° Northeast  Level Estimated
03:32PM 48.6803 1.4716 64° Northeast  Level Estimated
03:33PM 48.7375 1.6540 64° Northeast  Level Estimated
03:34PM 48.7945 1.8368 65° Northeast  Level Estimated
03:35PM 48.8512 2.0200 65° Northeast  Level Estimated
03:36PM 48.9076 2.2037 65° Northeast  Level Estimated